sensor_id;sensor_type;location;lat;lon;timestamp;pressure;altitude;pressure_sealevel;temperature;humidity
22647;BME280;11490;42.726;23.268;2023-05-09T00:01:36;95511.38;;;14.30;95.77
22647;BME280;11490;42.726;23.268;2023-05-09T00:04:03;95491.00;;;14.34;94.73
22647;BME280;11490;42.726;23.268;2023-05-09T00:06:28;95485.94;;;14.10;95.86
22647;BME280;11490;42.726;23.268;2023-05-09T00:08:54;95500.53;;;14.19;97.04
22647;BME280;11490;42.726;23.268;2023-05-09T00:11:20;95477.91;;;13.62;99.34
22647;BME280;11490;42.726;23.268;2023-05-09T00:13:47;95493.81;;;13.68;100.00
22647;BME280;11490;42.726;23.268;2023-05-09T00:16:12;95497.47;;;13.84;99.29
22647;BME280;11490;42.726;23.268;2023-05-09T00:18:38;95466.44;;;13.44;100.00
22647;BME280;11490;42.726;23.268;2023-05-09T00:21:06;95476.63;;;13.47;100.00
22647;BME280;11490;42.726;23.268;2023-05-09T00:23:33;95486.56;;;13.47;100.00
22647;BME280;11490;42.726;23.268;2023-05-09T00:25:58;95483.13;;;13.52;100.00
22647;BME280;11490;42.726;23.268;2023-05-09T00:28:24;95474.75;;;13.26;100.00
22647;BME280;11490;42.726;23.268;2023-05-09T00:30:49;95477.16;;;13.44;100.00
22647;BME280;11490;42.726;23.268;2023-05-09T00:33:15;95473.03;;;13.59;100.00
22647;BME280;11490;42.726;23.268;2023-05-09T00:35:40;95475.03;;;13.46;100.00
22647;BME280;11490;42.726;23.268;2023-05-09T00:38:05;95476.78;;;13.58;100.00
22647;BME280;11490;42.726;23.268;2023-05-09T00:40:31;95480.06;;;13.65;100.00
22647;BME280;11490;42.726;23.268;2023-05-09T00:42:58;95470.72;;;13.67;100.00
22647;BME280;11490;42.726;23.268;2023-05-09T00:45:24;95461.25;;;13.60;100.00
22647;BME280;11490;42.726;23.268;2023-05-09T00:47:49;95460.66;;;13.53;100.00
22647;BME280;11490;42.726;23.268;2023-05-09T00:50:15;95461.06;;;13.66;100.00
22647;BME280;11490;42.726;23.268;2023-05-09T00:52:41;95477.81;;;14.00;100.00
22647;BME280;11490;42.726;23.268;2023-05-09T00:55:07;95484.72;;;13.96;100.00
22647;BME280;11490;42.726;23.268;2023-05-09T00:57:33;95468.09;;;13.72;100.00
22647;BME280;11490;42.726;23.268;2023-05-09T00:59:59;95473.44;;;13.94;100.00
22647;BME280;11490;42.726;23.268;2023-05-09T01:02:25;95479.06;;;14.19;98.98
22647;BME280;11490;42.726;23.268;2023-05-09T01:04:51;95473.22;;;14.22;98.33
22647;BME280;11490;42.726;23.268;2023-05-09T01:10:20;95471.78;;;14.42;96.30
22647;BME280;11490;42.726;23.268;2023-05-09T01:15:45;95485.94;;;14.64;95.33
22647;BME280;11490;42.726;23.268;2023-05-09T01:21:00;95489.28;;;14.76;94.73
22647;BME280;11490;42.726;23.268;2023-05-09T01:31:24;95482.72;;;14.08;99.27
22647;BME280;11490;42.726;23.268;2023-05-09T01:33:56;95475.28;;;14.15;99.30
22647;BME280;11490;42.726;23.268;2023-05-09T01:36:23;95482.00;;;14.40;97.85
22647;BME280;11490;42.726;23.268;2023-05-09T01:38:53;95487.09;;;14.41;97.78
22647;BME280;11490;42.726;23.268;2023-05-09T01:41:22;95478.78;;;14.43;96.05
22647;BME280;11490;42.726;23.268;2023-05-09T01:43:49;95484.97;;;14.43;95.92
22647;BME280;11490;42.726;23.268;2023-05-09T01:46:17;95485.09;;;14.32;97.09
22647;BME280;11490;42.726;23.268;2023-05-09T01:48:43;95491.22;;;14.00;95.65
22647;BME280;11490;42.726;23.268;2023-05-09T01:51:12;95482.56;;;13.71;97.46
22647;BME280;11490;42.726;23.268;2023-05-09T01:53:39;95499.19;;;13.95;97.46
22647;BME280;11490;42.726;23.268;2023-05-09T01:56:06;95483.00;;;13.85;96.31
22647;BME280;11490;42.726;23.268;2023-05-09T01:58:32;95482.22;;;14.11;96.49
22647;BME280;11490;42.726;23.268;2023-05-09T02:00:59;95500.19;;;13.89;96.44
22647;BME280;11490;42.726;23.268;2023-05-09T02:03:24;95480.25;;;13.80;96.56
22647;BME280;11490;42.726;23.268;2023-05-09T02:05:51;95499.47;;;14.20;96.35
22647;BME280;11490;42.726;23.268;2023-05-09T02:08:18;95496.91;;;14.31;95.43
22647;BME280;11490;42.726;23.268;2023-05-09T02:10:46;95496.25;;;14.45;93.64
22647;BME280;11490;42.726;23.268;2023-05-09T02:13:12;95494.31;;;14.14;94.28
22647;BME280;11490;42.726;23.268;2023-05-09T02:15:38;95501.38;;;13.98;96.26
22647;BME280;11490;42.726;23.268;2023-05-09T02:18:04;95494.56;;;14.12;95.61
22647;BME280;11490;42.726;23.268;2023-05-09T02:20:30;95497.91;;;14.24;94.47
22647;BME280;11490;42.726;23.268;2023-05-09T02:22:55;95494.06;;;14.15;95.65
22647;BME280;11490;42.726;23.268;2023-05-09T02:25:21;95477.44;;;14.18;94.42
22647;BME280;11490;42.726;23.268;2023-05-09T02:27:47;95497.31;;;14.44;93.25
22647;BME280;11490;42.726;23.268;2023-05-09T02:30:17;95479.38;;;14.23;93.86
22647;BME280;11490;42.726;23.268;2023-05-09T02:32:47;95502.47;;;14.51;93.44
22647;BME280;11490;42.726;23.268;2023-05-09T02:35:16;95498.22;;;14.55;92.82
22647;BME280;11490;42.726;23.268;2023-05-09T02:37:44;95505.19;;;14.56;93.14
22647;BME280;11490;42.726;23.268;2023-05-09T02:40:10;95479.38;;;14.23;94.23
22647;BME280;11490;42.726;23.268;2023-05-09T02:42:36;95486.56;;;14.17;94.36
22647;BME280;11490;42.726;23.268;2023-05-09T02:45:01;95487.50;;;14.33;94.32
22647;BME280;11490;42.726;23.268;2023-05-09T02:47:27;95478.47;;;14.12;94.06
22647;BME280;11490;42.726;23.268;2023-05-09T02:49:52;95487.56;;;13.84;95.32
22647;BME280;11490;42.726;23.268;2023-05-09T02:52:18;95485.25;;;13.93;95.82
22647;BME280;11490;42.726;23.268;2023-05-09T02:54:44;95484.72;;;13.96;95.95
22647;BME280;11490;42.726;23.268;2023-05-09T02:57:09;95494.56;;;13.85;96.43
22647;BME280;11490;42.726;23.268;2023-05-09T02:59:34;95496.06;;;14.03;95.62
22647;BME280;11490;42.726;23.268;2023-05-09T03:02:00;95478.88;;;13.99;95.37
22647;BME280;11490;42.726;23.268;2023-05-09T03:04:25;95495.69;;;14.16;95.62
22647;BME280;11490;42.726;23.268;2023-05-09T03:06:51;95511.38;;;14.30;95.15
22647;BME280;11490;42.726;23.268;2023-05-09T03:09:16;95504.19;;;14.35;94.63
22647;BME280;11490;42.726;23.268;2023-05-09T03:11:42;95512.13;;;14.47;93.49
22647;BME280;11490;42.726;23.268;2023-05-09T03:14:07;95514.25;;;14.45;94.00
22647;BME280;11490;42.726;23.268;2023-05-09T03:16:35;95518.91;;;14.33;94.48
22647;BME280;11490;42.726;23.268;2023-05-09T03:19:00;95516.94;;;14.23;95.64
22647;BME280;11490;42.726;23.268;2023-05-09T03:21:25;95523.41;;;14.27;95.16
22647;BME280;11490;42.726;23.268;2023-05-09T03:23:52;95537.75;;;13.89;98.12
22647;BME280;11490;42.726;23.268;2023-05-09T03:26:17;95527.41;;;13.76;100.00
22647;BME280;11490;42.726;23.268;2023-05-09T03:28:43;95489.78;;;13.49;100.00
22647;BME280;11490;42.726;23.268;2023-05-09T03:31:08;95512.63;;;13.52;100.00
22647;BME280;11490;42.726;23.268;2023-05-09T03:33:33;95522.13;;;13.42;100.00
22647;BME280;11490;42.726;23.268;2023-05-09T03:35:59;95526.00;;;13.52;100.00
22647;BME280;11490;42.726;23.268;2023-05-09T03:38:24;95545.97;;;13.61;99.91
22647;BME280;11490;42.726;23.268;2023-05-09T03:40:51;95536.47;;;13.31;100.00
22647;BME280;11490;42.726;23.268;2023-05-09T03:43:17;95539.84;;;13.43;100.00
22647;BME280;11490;42.726;23.268;2023-05-09T03:45:43;95522.25;;;12.81;100.00
22647;BME280;11490;42.726;23.268;2023-05-09T03:48:08;95500.94;;;12.69;100.00
22647;BME280;11490;42.726;23.268;2023-05-09T03:50:35;95507.66;;;13.05;100.00
22647;BME280;11490;42.726;23.268;2023-05-09T03:53:01;95506.66;;;13.11;100.00
22647;BME280;11490;42.726;23.268;2023-05-09T03:55:26;95515.94;;;13.20;100.00
22647;BME280;11490;42.726;23.268;2023-05-09T03:57:52;95533.84;;;13.03;100.00
22647;BME280;11490;42.726;23.268;2023-05-09T04:00:18;95516.41;;;13.17;100.00
22647;BME280;11490;42.726;23.268;2023-05-09T04:02:44;95542.66;;;13.15;100.00
22647;BME280;11490;42.726;23.268;2023-05-09T04:05:09;95523.16;;;13.20;100.00
22647;BME280;11490;42.726;23.268;2023-05-09T04:07:35;95522.69;;;13.23;100.00
22647;BME280;11490;42.726;23.268;2023-05-09T04:10:00;95521.50;;;13.35;100.00
22647;BME280;11490;42.726;23.268;2023-05-09T04:12:25;95527.22;;;13.22;100.00
22647;BME280;11490;42.726;23.268;2023-05-09T04:14:51;95523.97;;;13.20;100.00
22647;BME280;11490;42.726;23.268;2023-05-09T04:17:17;95527.84;;;13.29;100.00
22647;BME280;11490;42.726;23.268;2023-05-09T04:19:42;95548.78;;;13.32;100.00
22647;BME280;11490;42.726;23.268;2023-05-09T04:22:07;95534.00;;;13.46;100.00
22647;BME280;11490;42.726;23.268;2023-05-09T04:24:33;95551.19;;;13.51;100.00
22647;BME280;11490;42.726;23.268;2023-05-09T04:26:58;95552.97;;;13.62;100.00
22647;BME280;11490;42.726;23.268;2023-05-09T04:29:24;95557.69;;;13.55;100.00
22647;BME280;11490;42.726;23.268;2023-05-09T04:31:50;95564.78;;;13.27;100.00
22647;BME280;11490;42.726;23.268;2023-05-09T04:34:15;95554.81;;;13.06;100.00
22647;BME280;11490;42.726;23.268;2023-05-09T04:36:41;95554.09;;;13.49;100.00
22647;BME280;11490;42.726;23.268;2023-05-09T04:39:06;95549.91;;;13.36;100.00
22647;BME280;11490;42.726;23.268;2023-05-09T04:41:32;95555.47;;;13.30;100.00
22647;BME280;11490;42.726;23.268;2023-05-09T04:43:57;95557.59;;;13.49;100.00
22647;BME280;11490;42.726;23.268;2023-05-09T04:46:23;95554.94;;;13.33;100.00
22647;BME280;11490;42.726;23.268;2023-05-09T04:48:48;95541.09;;;13.19;100.00
22647;BME280;11490;42.726;23.268;2023-05-09T04:51:14;95564.88;;;12.99;100.00
22647;BME280;11490;42.726;23.268;2023-05-09T04:53:39;95568.69;;;13.36;100.00
22647;BME280;11490;42.726;23.268;2023-05-09T04:56:05;95567.41;;;13.61;99.98
22647;BME280;11490;42.726;23.268;2023-05-09T04:58:30;95565.94;;;13.70;98.77
22647;BME280;11490;42.726;23.268;2023-05-09T05:00:57;95526.50;;;13.48;97.80
22647;BME280;11490;42.726;23.268;2023-05-09T05:03:22;95564.41;;;13.79;98.70
22647;BME280;11490;42.726;23.268;2023-05-09T05:05:48;95542.66;;;13.54;99.58
22647;BME280;11490;42.726;23.268;2023-05-09T05:08:13;95537.22;;;13.48;99.66
22647;BME280;11490;42.726;23.268;2023-05-09T05:10:38;95555.94;;;13.87;99.28
22647;BME280;11490;42.726;23.268;2023-05-09T05:13:04;95557.84;;;14.08;98.07
22647;BME280;11490;42.726;23.268;2023-05-09T05:15:29;95541.03;;;13.96;97.50
22647;BME280;11490;42.726;23.268;2023-05-09T05:17:55;95534.44;;;14.04;97.72
22647;BME280;11490;42.726;23.268;2023-05-09T05:20:20;95564.44;;;14.22;97.59
22647;BME280;11490;42.726;23.268;2023-05-09T05:22:46;95556.06;;;13.97;97.26
22647;BME280;11490;42.726;23.268;2023-05-09T05:25:11;95561.31;;;13.87;96.87
22647;BME280;11490;42.726;23.268;2023-05-09T05:27:37;95533.00;;;13.96;95.72
22647;BME280;11490;42.726;23.268;2023-05-09T05:30:03;95569.53;;;14.24;95.56
22647;BME280;11490;42.726;23.268;2023-05-09T05:32:28;95534.34;;;14.20;95.14
22647;BME280;11490;42.726;23.268;2023-05-09T05:34:54;95551.66;;;14.35;95.07
22647;BME280;11490;42.726;23.268;2023-05-09T05:37:19;95545.56;;;14.17;95.11
22647;BME280;11490;42.726;23.268;2023-05-09T05:39:44;95561.91;;;14.38;95.39
22647;BME280;11490;42.726;23.268;2023-05-09T05:42:10;95564.47;;;14.49;94.76
22647;BME280;11490;42.726;23.268;2023-05-09T05:44:35;95561.63;;;14.12;94.86
22647;BME280;11490;42.726;23.268;2023-05-09T05:47:00;95564.59;;;13.94;97.01
22647;BME280;11490;42.726;23.268;2023-05-09T05:49:26;95563.78;;;13.72;96.87
22647;BME280;11490;42.726;23.268;2023-05-09T05:51:51;95571.00;;;13.49;98.18
22647;BME280;11490;42.726;23.268;2023-05-09T05:54:17;95553.22;;;13.82;97.59
22647;BME280;11490;42.726;23.268;2023-05-09T05:56:42;95561.59;;;13.85;94.89
22647;BME280;11490;42.726;23.268;2023-05-09T05:59:07;95567.28;;;13.94;95.25
22647;BME280;11490;42.726;23.268;2023-05-09T06:01:33;95566.53;;;14.20;94.18
22647;BME280;11490;42.726;23.268;2023-05-09T06:03:58;95577.16;;;14.10;92.81
22647;BME280;11490;42.726;23.268;2023-05-09T06:06:25;95579.72;;;14.44;91.50
22647;BME280;11490;42.726;23.268;2023-05-09T06:08:50;95566.53;;;14.42;91.76
22647;BME280;11490;42.726;23.268;2023-05-09T06:11:16;95573.41;;;14.11;93.38
22647;BME280;11490;42.726;23.268;2023-05-09T06:13:42;95567.94;;;14.01;92.63
22647;BME280;11490;42.726;23.268;2023-05-09T06:16:08;95570.97;;;14.53;92.46
22647;BME280;11490;42.726;23.268;2023-05-09T06:18:36;95570.41;;;13.86;93.02
22647;BME280;11490;42.726;23.268;2023-05-09T06:21:04;95575.31;;;14.38;92.64
22647;BME280;11490;42.726;23.268;2023-05-09T06:23:30;95554.19;;;14.19;92.83
22647;BME280;11490;42.726;23.268;2023-05-09T06:25:55;95564.06;;;14.62;91.97
22647;BME280;11490;42.726;23.268;2023-05-09T06:28:20;95570.47;;;14.88;90.36
22647;BME280;11490;42.726;23.268;2023-05-09T06:30:46;95573.38;;;15.14;89.67
22647;BME280;11490;42.726;23.268;2023-05-09T06:33:11;95562.28;;;15.05;86.00
22647;BME280;11490;42.726;23.268;2023-05-09T06:35:37;95556.22;;;14.88;87.25
22647;BME280;11490;42.726;23.268;2023-05-09T06:38:02;95568.41;;;15.69;88.03
22647;BME280;11490;42.726;23.268;2023-05-09T06:40:28;95564.75;;;15.96;83.08
22647;BME280;11490;42.726;23.268;2023-05-09T06:42:53;95572.22;;;16.46;82.87
22647;BME280;11490;42.726;23.268;2023-05-09T06:45:19;95570.06;;;16.48;80.82
22647;BME280;11490;42.726;23.268;2023-05-09T06:47:45;95559.97;;;16.08;81.35
22647;BME280;11490;42.726;23.268;2023-05-09T06:50:10;95565.38;;;16.08;82.97
22647;BME280;11490;42.726;23.268;2023-05-09T06:52:35;95548.31;;;15.40;85.09
22647;BME280;11490;42.726;23.268;2023-05-09T06:55:01;95571.00;;;16.06;85.02
22647;BME280;11490;42.726;23.268;2023-05-09T06:57:27;95561.63;;;16.19;83.95
22647;BME280;11490;42.726;23.268;2023-05-09T06:59:58;95519.03;;;15.49;84.04
22647;BME280;11490;42.726;23.268;2023-05-09T07:02:24;95563.13;;;15.90;84.15
22647;BME280;11490;42.726;23.268;2023-05-09T07:04:49;95545.47;;;16.09;82.17
22647;BME280;11490;42.726;23.268;2023-05-09T07:07:15;95562.16;;;16.16;82.62
22647;BME280;11490;42.726;23.268;2023-05-09T07:09:40;95556.16;;;15.99;81.89
22647;BME280;11490;42.726;23.268;2023-05-09T07:12:06;95537.50;;;14.98;83.46
22647;BME280;11490;42.726;23.268;2023-05-09T07:14:31;95550.59;;;15.58;83.12
22647;BME280;11490;42.726;23.268;2023-05-09T07:16:57;95525.75;;;15.46;83.31
22647;BME280;11490;42.726;23.268;2023-05-09T07:19:23;95531.44;;;15.13;81.11
22647;BME280;11490;42.726;23.268;2023-05-09T07:21:48;95545.53;;;15.25;80.54
22647;BME280;11490;42.726;23.268;2023-05-09T07:24:13;95548.63;;;15.12;81.35
22647;BME280;11490;42.726;23.268;2023-05-09T07:26:41;95535.88;;;15.34;81.65
22647;BME280;11490;42.726;23.268;2023-05-09T07:29:06;95564.97;;;14.73;83.07
22647;BME280;11490;42.726;23.268;2023-05-09T07:31:35;95545.44;;;14.51;85.20
22647;BME280;11490;42.726;23.268;2023-05-09T07:34:00;95562.19;;;14.63;85.80
22647;BME280;11490;42.726;23.268;2023-05-09T07:36:26;95550.28;;;14.54;85.72
22647;BME280;11490;42.726;23.268;2023-05-09T07:38:52;95537.94;;;14.53;86.60
22647;BME280;11490;42.726;23.268;2023-05-09T07:41:18;95529.69;;;14.91;85.98
22647;BME280;11490;42.726;23.268;2023-05-09T07:43:44;95555.41;;;14.87;84.18
22647;BME280;11490;42.726;23.268;2023-05-09T07:46:09;95572.94;;;14.95;85.90
22647;BME280;11490;42.726;23.268;2023-05-09T07:48:35;95568.31;;;14.85;85.69
22647;BME280;11490;42.726;23.268;2023-05-09T07:51:02;95549.88;;;14.67;85.95
22647;BME280;11490;42.726;23.268;2023-05-09T07:53:27;95558.03;;;14.77;86.88
22647;BME280;11490;42.726;23.268;2023-05-09T07:55:52;95561.59;;;14.88;85.38
22647;BME280;11490;42.726;23.268;2023-05-09T07:58:18;95578.50;;;15.15;84.48
22647;BME280;11490;42.726;23.268;2023-05-09T08:00:43;95548.22;;;14.12;86.81
22647;BME280;11490;42.726;23.268;2023-05-09T08:03:09;95565.66;;;14.37;86.88
22647;BME280;11490;42.726;23.268;2023-05-09T08:05:38;95558.25;;;14.44;88.93
22647;BME280;11490;42.726;23.268;2023-05-09T08:08:03;95554.81;;;14.26;88.62
22647;BME280;11490;42.726;23.268;2023-05-09T08:10:29;95557.88;;;14.62;86.71
22647;BME280;11490;42.726;23.268;2023-05-09T08:12:58;95563.44;;;14.82;86.03
22647;BME280;11490;42.726;23.268;2023-05-09T08:15:23;95566.38;;;14.81;85.61
22647;BME280;11490;42.726;23.268;2023-05-09T08:17:49;95542.91;;;14.71;85.01
22647;BME280;11490;42.726;23.268;2023-05-09T08:20:14;95558.56;;;15.11;84.67
22647;BME280;11490;42.726;23.268;2023-05-09T08:22:40;95543.34;;;14.90;83.93
22647;BME280;11490;42.726;23.268;2023-05-09T08:25:06;95570.09;;;15.07;85.51
22647;BME280;11490;42.726;23.268;2023-05-09T08:27:32;95573.41;;;15.19;85.11
22647;BME280;11490;42.726;23.268;2023-05-09T08:29:57;95567.06;;;15.35;83.52
22647;BME280;11490;42.726;23.268;2023-05-09T08:32:23;95573.81;;;15.37;82.74
22647;BME280;11490;42.726;23.268;2023-05-09T08:34:49;95561.78;;;15.08;82.61
22647;BME280;11490;42.726;23.268;2023-05-09T08:37:15;95553.97;;;15.07;84.53
22647;BME280;11490;42.726;23.268;2023-05-09T08:39:40;95532.56;;;14.53;84.96
22647;BME280;11490;42.726;23.268;2023-05-09T08:42:08;95547.47;;;15.02;84.75
22647;BME280;11490;42.726;23.268;2023-05-09T08:44:33;95551.91;;;15.19;82.82
22647;BME280;11490;42.726;23.268;2023-05-09T08:47:01;95575.13;;;15.35;80.82
22647;BME280;11490;42.726;23.268;2023-05-09T08:49:26;95577.41;;;15.48;80.83
22647;BME280;11490;42.726;23.268;2023-05-09T08:51:53;95572.72;;;15.75;79.79
22647;BME280;11490;42.726;23.268;2023-05-09T08:54:20;95554.41;;;14.93;79.69
22647;BME280;11490;42.726;23.268;2023-05-09T08:56:46;95580.97;;;15.22;79.63
22647;BME280;11490;42.726;23.268;2023-05-09T08:59:12;95586.38;;;15.27;77.89
22647;BME280;11490;42.726;23.268;2023-05-09T09:01:38;95574.09;;;15.41;78.44
22647;BME280;11490;42.726;23.268;2023-05-09T09:04:06;95584.34;;;15.44;78.13
22647;BME280;11490;42.726;23.268;2023-05-09T09:06:33;95574.63;;;15.80;77.68
22647;BME280;11490;42.726;23.268;2023-05-09T09:09:04;95549.09;;;15.77;77.05
22647;BME280;11490;42.726;23.268;2023-05-09T09:11:30;95571.13;;;15.79;74.47
22647;BME280;11490;42.726;23.268;2023-05-09T09:14:00;95537.88;;;16.01;74.16
22647;BME280;11490;42.726;23.268;2023-05-09T09:16:27;95553.59;;;16.29;73.76
22647;BME280;11490;42.726;23.268;2023-05-09T09:18:54;95557.91;;;16.25;72.94
22647;BME280;11490;42.726;23.268;2023-05-09T09:21:20;95580.81;;;16.38;71.45
22647;BME280;11490;42.726;23.268;2023-05-09T09:23:46;95572.38;;;16.19;73.33
22647;BME280;11490;42.726;23.268;2023-05-09T09:26:13;95538.50;;;16.18;75.35
22647;BME280;11490;42.726;23.268;2023-05-09T09:28:39;95568.16;;;16.43;73.27
22647;BME280;11490;42.726;23.268;2023-05-09T09:31:20;95571.50;;;16.71;72.42
22647;BME280;11490;42.726;23.268;2023-05-09T09:33:47;95566.63;;;16.63;72.23
22647;BME280;11490;42.726;23.268;2023-05-09T09:36:12;95552.91;;;15.45;74.88
22647;BME280;11490;42.726;23.268;2023-05-09T09:38:41;95563.28;;;16.25;74.07
22647;BME280;11490;42.726;23.268;2023-05-09T09:41:11;95558.75;;;16.51;74.01
22647;BME280;11490;42.726;23.268;2023-05-09T09:43:37;95548.19;;;16.24;72.44
22647;BME280;11490;42.726;23.268;2023-05-09T09:46:03;95558.09;;;16.13;73.47
22647;BME280;11490;42.726;23.268;2023-05-09T09:48:33;95562.31;;;16.67;73.45
22647;BME280;11490;42.726;23.268;2023-05-09T09:51:17;95567.28;;;15.65;74.44
22647;BME280;11490;42.726;23.268;2023-05-09T09:53:43;95573.78;;;15.69;74.46
22647;BME280;11490;42.726;23.268;2023-05-09T09:56:08;95566.75;;;16.15;73.38
22647;BME280;11490;42.726;23.268;2023-05-09T09:58:34;95574.06;;;16.30;72.33
22647;BME280;11490;42.726;23.268;2023-05-09T10:01:10;95568.47;;;15.85;74.68
22647;BME280;11490;42.726;23.268;2023-05-09T10:03:39;95547.19;;;15.36;77.98
22647;BME280;11490;42.726;23.268;2023-05-09T10:06:10;95545.53;;;15.25;77.49
22647;BME280;11490;42.726;23.268;2023-05-09T10:08:36;95538.56;;;15.34;79.28
22647;BME280;11490;42.726;23.268;2023-05-09T10:11:02;95550.66;;;15.68;78.61
22647;BME280;11490;42.726;23.268;2023-05-09T10:13:28;95543.53;;;15.94;76.30
22647;BME280;11490;42.726;23.268;2023-05-09T10:15:55;95555.97;;;16.21;74.21
22647;BME280;11490;42.726;23.268;2023-05-09T10:18:25;95537.19;;;16.31;74.17
22647;BME280;11490;42.726;23.268;2023-05-09T10:20:52;95521.03;;;16.26;75.59
22647;BME280;11490;42.726;23.268;2023-05-09T10:23:18;95546.84;;;16.27;75.73
22647;BME280;11490;42.726;23.268;2023-05-09T10:25:54;95535.78;;;16.13;75.68
22647;BME280;11490;42.726;23.268;2023-05-09T10:28:26;95531.53;;;16.42;75.39
22647;BME280;11490;42.726;23.268;2023-05-09T10:31:02;95533.66;;;16.30;76.49
22647;BME280;11490;42.726;23.268;2023-05-09T10:33:48;95535.59;;;16.40;76.86
22647;BME280;11490;42.726;23.268;2023-05-09T10:36:16;95544.53;;;16.66;74.29
22647;BME280;11490;42.726;23.268;2023-05-09T10:38:43;95501.81;;;15.92;76.39
22647;BME280;11490;42.726;23.268;2023-05-09T10:41:12;95530.94;;;16.10;76.95
22647;BME280;11490;42.726;23.268;2023-05-09T10:43:40;95524.97;;;16.03;76.87
22647;BME280;11490;42.726;23.268;2023-05-09T10:46:07;95514.19;;;15.93;76.60
22647;BME280;11490;42.726;23.268;2023-05-09T10:48:33;95536.03;;;16.06;76.38
22647;BME280;11490;42.726;23.268;2023-05-09T10:51:04;95528.75;;;16.02;76.71
22647;BME280;11490;42.726;23.268;2023-05-09T10:53:46;95525.47;;;15.90;76.55
22647;BME280;11490;42.726;23.268;2023-05-09T10:56:28;95537.34;;;16.04;76.81
22647;BME280;11490;42.726;23.268;2023-05-09T10:58:54;95506.66;;;15.95;76.62
22647;BME280;11490;42.726;23.268;2023-05-09T11:01:37;95537.28;;;15.84;77.79
22647;BME280;11490;42.726;23.268;2023-05-09T11:04:13;95521.47;;;15.50;78.26
22647;BME280;11490;42.726;23.268;2023-05-09T11:09:34;95541.31;;;15.86;78.33
22647;BME280;11490;42.726;23.268;2023-05-09T11:12:12;95539.47;;;15.92;77.32
22647;BME280;11490;42.726;23.268;2023-05-09T11:14:45;95543.22;;;15.91;77.58
22647;BME280;11490;42.726;23.268;2023-05-09T11:17:27;95530.38;;;16.13;77.77
22647;BME280;11490;42.726;23.268;2023-05-09T11:19:58;95533.13;;;16.28;76.53
22647;BME280;11490;42.726;23.268;2023-05-09T11:22:29;95520.78;;;16.47;75.51
22647;BME280;11490;42.726;23.268;2023-05-09T11:27:26;95515.00;;;16.03;75.64
22647;BME280;11490;42.726;23.268;2023-05-09T11:29:57;95536.13;;;16.47;76.84
22647;BME280;11490;42.726;23.268;2023-05-09T11:32:33;95534.78;;;16.39;75.91
22647;BME280;11490;42.726;23.268;2023-05-09T11:35:17;95535.22;;;16.06;77.16
22647;BME280;11490;42.726;23.268;2023-05-09T11:40:17;95525.88;;;16.44;75.32
22647;BME280;11490;42.726;23.268;2023-05-09T11:42:46;95536.88;;;16.27;74.72
22647;BME280;11490;42.726;23.268;2023-05-09T11:45:12;95494.78;;;15.86;74.97
22647;BME280;11490;42.726;23.268;2023-05-09T11:47:39;95525.03;;;16.28;74.70
22647;BME280;11490;42.726;23.268;2023-05-09T11:50:15;95511.66;;;16.48;73.66
22647;BME280;11490;42.726;23.268;2023-05-09T11:52:44;95522.38;;;16.38;73.98
22647;BME280;11490;42.726;23.268;2023-05-09T11:55:12;95525.34;;;16.37;74.09
22647;BME280;11490;42.726;23.268;2023-05-09T11:57:44;95524.28;;;16.43;73.71
22647;BME280;11490;42.726;23.268;2023-05-09T12:00:10;95509.47;;;16.50;75.18
22647;BME280;11490;42.726;23.268;2023-05-09T12:02:36;95505.03;;;15.94;75.19
22647;BME280;11490;42.726;23.268;2023-05-09T12:05:09;95526.16;;;16.32;76.38
22647;BME280;11490;42.726;23.268;2023-05-09T12:07:36;95512.69;;;16.37;75.56
22647;BME280;11490;42.726;23.268;2023-05-09T12:10:13;95538.56;;;16.48;74.90
22647;BME280;11490;42.726;23.268;2023-05-09T12:12:52;95518.88;;;16.33;74.13
22647;BME280;11490;42.726;23.268;2023-05-09T12:15:24;95486.81;;;16.16;75.16
22647;BME280;11490;42.726;23.268;2023-05-09T12:18:04;95525.09;;;16.38;74.52
22647;BME280;11490;42.726;23.268;2023-05-09T12:20:43;95526.66;;;16.34;74.97
22647;BME280;11490;42.726;23.268;2023-05-09T12:23:09;95546.16;;;16.67;75.28
22647;BME280;11490;42.726;23.268;2023-05-09T12:25:36;95501.84;;;16.12;75.95
22647;BME280;11490;42.726;23.268;2023-05-09T12:28:01;95513.63;;;15.96;75.88
22647;BME280;11490;42.726;23.268;2023-05-09T12:30:27;95520.75;;;15.60;77.34
22647;BME280;11490;42.726;23.268;2023-05-09T12:32:53;95488.47;;;15.18;79.81
22647;BME280;11490;42.726;23.268;2023-05-09T12:35:20;95496.28;;;15.61;79.47
22647;BME280;11490;42.726;23.268;2023-05-09T12:37:54;95530.22;;;15.72;79.40
22647;BME280;11490;42.726;23.268;2023-05-09T12:40:21;95523.13;;;16.08;78.72
22647;BME280;11490;42.726;23.268;2023-05-09T12:42:47;95523.41;;;16.22;76.55
22647;BME280;11490;42.726;23.268;2023-05-09T12:45:13;95499.72;;;16.09;76.54
22647;BME280;11490;42.726;23.268;2023-05-09T12:47:38;95519.41;;;16.30;77.00
22647;BME280;11490;42.726;23.268;2023-05-09T12:50:06;95482.75;;;15.46;78.26
22647;BME280;11490;42.726;23.268;2023-05-09T12:52:49;95504.13;;;15.26;80.37
22647;BME280;11490;42.726;23.268;2023-05-09T12:55:14;95475.03;;;15.13;80.33
22647;BME280;11490;42.726;23.268;2023-05-09T12:57:40;95501.59;;;15.51;79.80
22647;BME280;11490;42.726;23.268;2023-05-09T13:00:08;95498.91;;;15.51;79.78
22647;BME280;11490;42.726;23.268;2023-05-09T13:02:35;95483.91;;;15.13;79.84
22647;BME280;11490;42.726;23.268;2023-05-09T13:05:12;95507.38;;;15.28;81.50
22647;BME280;11490;42.726;23.268;2023-05-09T13:07:55;95499.63;;;15.36;80.01
22647;BME280;11490;42.726;23.268;2023-05-09T13:10:25;95474.34;;;14.90;81.22
22647;BME280;11490;42.726;23.268;2023-05-09T13:12:53;95475.97;;;14.91;82.62